createdAt,value
2023-01-02T00:01:17.183Z,5.90
2023-01-02T00:05:18.904Z,5.43
2023-01-02T00:09:20.742Z,5.63
2023-01-02T00:13:22.494Z,5.53
2023-01-02T00:17:24.326Z,6.17
2023-01-02T00:21:26.091Z,5.50
2023-01-02T00:25:28.043Z,5.73
2023-01-02T00:29:29.807Z,5.70
2023-01-02T00:33:31.664Z,6.13
2023-01-02T00:37:33.554Z,5.90
2023-01-02T00:41:35.346Z,5.90
2023-01-02T00:45:37.100Z,6.00
2023-01-02T00:49:38.901Z,5.80
2023-01-02T00:53:40.623Z,5.83
2023-01-02T00:57:42.415Z,5.80
2023-01-02T01:01:44.295Z,6.07
2023-01-02T01:05:46.267Z,5.47
2023-01-02T01:09:48.014Z,6.47
2023-01-02T01:13:49.740Z,5.60
2023-01-02T01:17:51.473Z,5.17
2023-01-02T01:21:53.314Z,5.83
2023-01-02T01:25:55.040Z,4.70
2023-01-02T01:29:56.784Z,5.37
2023-01-02T01:33:58.556Z,5.13
2023-01-02T01:38:00.311Z,4.80
2023-01-02T01:42:02.304Z,5.17
2023-01-02T01:46:06.208Z,4.67
2023-01-02T01:50:19.542Z,4.63
2023-01-02T01:54:25.514Z,4.77
2023-01-02T01:58:31.694Z,4.47
2023-01-02T02:02:33.790Z,3.13
2023-01-02T02:06:35.945Z,2.77
2023-01-02T02:10:38.364Z,2.30
2023-01-02T02:14:40.146Z,2.20
2023-01-02T02:18:45.925Z,3.40
2023-01-02T02:23:21.499Z,5.10
2023-01-02T02:27:40.947Z,5.33
2023-01-02T02:32:02.400Z,5.73
2023-01-02T02:36:34.837Z,5.57
2023-01-02T02:41:08.036Z,5.77
2023-01-02T02:45:25.916Z,5.53
2023-01-02T02:49:56.426Z,5.73
2023-01-02T02:54:11.868Z,6.07
2023-01-02T02:58:13.913Z,5.77
2023-01-02T03:02:16.923Z,5.70
2023-01-02T03:06:25.505Z,5.53
2023-01-02T03:10:53.492Z,5.87
2023-01-02T03:15:12.485Z,5.70
2023-01-02T03:19:59.568Z,6.20
2023-01-02T03:24:12.496Z,5.80
2023-01-02T03:28:17.448Z,5.67
2023-01-02T03:32:32.377Z,5.97
2023-01-02T03:36:34.218Z,5.77
2023-01-02T03:40:40.473Z,6.10
2023-01-02T03:45:01.935Z,5.40
2023-01-02T03:49:16.020Z,4.27
2023-01-02T03:53:17.780Z,2.70
2023-01-02T03:57:31.783Z,1.90
2023-01-02T04:01:45.612Z,1.50
2023-01-02T04:05:52.701Z,1.70
2023-01-02T04:09:54.523Z,1.63
2023-01-02T04:14:03.109Z,3.40
2023-01-02T04:18:10.047Z,4.83
2023-01-02T04:22:35.861Z,5.70
2023-01-02T04:26:51.979Z,5.67
2023-01-02T04:31:18.210Z,7.03
2023-01-02T04:35:22.013Z,6.60
2023-01-02T04:39:23.765Z,7.00
2023-01-02T04:43:25.479Z,7.17
2023-01-02T04:47:27.208Z,6.53
2023-01-02T04:51:28.942Z,6.40
2023-01-02T04:55:30.693Z,7.10
2023-01-02T04:59:32.482Z,7.07
2023-01-02T05:03:34.188Z,6.30
2023-01-02T05:07:37.170Z,6.80
2023-01-02T05:11:38.908Z,7.00
2023-01-02T05:15:40.694Z,6.90
2023-01-02T05:19:42.482Z,7.30
2023-01-02T05:23:49.927Z,6.73
2023-01-02T05:27:55.148Z,6.63
2023-01-02T05:31:56.957Z,6.80
2023-01-02T05:35:58.785Z,6.97
2023-01-02T05:40:00.723Z,6.87
2023-01-02T05:44:02.660Z,6.70
2023-01-02T05:48:05.067Z,6.70
2023-01-02T05:52:08.328Z,7.23
2023-01-02T05:56:16.138Z,6.83
2023-01-02T06:00:18.320Z,6.63
2023-01-02T06:04:20.936Z,6.27
2023-01-02T06:08:23.190Z,6.30
2023-01-02T06:12:26.671Z,6.77
2023-01-02T06:16:29.350Z,6.50
2023-01-02T06:20:31.535Z,6.80
2023-01-02T06:24:33.391Z,6.30
2023-01-02T06:28:35.566Z,6.27
2023-01-02T06:32:38.830Z,6.53
2023-01-02T06:36:41.896Z,6.50
2023-01-02T06:40:54.530Z,6.67
2023-01-02T06:44:57.060Z,7.10
2023-01-02T06:48:59.447Z,7.60
2023-01-02T06:53:01.616Z,6.93
2023-01-02T06:57:03.625Z,7.43
2023-01-02T07:01:11.626Z,7.97
2023-01-02T07:05:21.141Z,7.57
2023-01-02T07:09:29.332Z,7.97
2023-01-02T07:13:31.234Z,8.27
2023-01-02T07:17:33.568Z,8.50
2023-01-02T07:21:36.600Z,8.60
2023-01-02T07:25:44.231Z,9.40
2023-01-02T07:29:46.432Z,9.13
2023-01-02T07:33:48.347Z,9.83
2023-01-02T07:37:50.158Z,9.10
2023-01-02T07:41:51.940Z,9.67
2023-01-02T07:45:53.828Z,9.83
2023-01-02T07:49:55.556Z,9.57
2023-01-02T07:53:57.593Z,9.57
2023-01-02T07:57:59.351Z,9.50
2023-01-02T08:02:01.169Z,9.67
2023-01-02T08:06:11.158Z,9.80
2023-01-02T08:10:13.025Z,10.00
2023-01-02T08:14:18.501Z,8.50
2023-01-02T08:18:24.925Z,9.37
2023-01-02T08:22:26.665Z,8.90
2023-01-02T08:26:28.461Z,9.33
2023-01-02T08:30:30.214Z,8.77
2023-01-02T08:34:32.012Z,8.93
2023-01-02T08:38:33.848Z,9.07
2023-01-02T08:42:35.600Z,8.70
2023-01-02T08:46:42.570Z,9.27
2023-01-02T08:50:44.912Z,9.10
2023-01-02T08:54:46.659Z,9.90
2023-01-02T08:58:56.048Z,9.17
2023-01-02T09:02:57.921Z,9.17
2023-01-02T09:06:59.837Z,8.10
2023-01-02T09:11:11.885Z,8.73
2023-01-02T09:15:13.722Z,8.57
2023-01-02T09:19:15.540Z,9.17
2023-01-02T09:23:17.343Z,8.87
2023-01-02T09:27:19.429Z,8.53
2023-01-02T09:31:21.956Z,8.83
2023-01-02T09:35:23.814Z,8.20
2023-01-02T09:39:31.924Z,8.27
2023-01-02T09:43:39.676Z,8.47
2023-01-02T09:47:41.402Z,8.27
2023-01-02T09:51:44.018Z,8.50
2023-01-02T09:55:52.052Z,8.17
2023-01-02T10:00:18.322Z,7.77
2023-01-02T10:04:50.860Z,7.93
2023-01-02T10:09:31.393Z,7.13
2023-01-02T10:18:26.067Z,7.30
2023-01-02T10:22:43.680Z,7.67
2023-01-02T10:26:53.437Z,7.63
2023-01-02T10:31:06.772Z,7.60
2023-01-02T10:35:13.001Z,7.80
2023-01-02T10:39:22.798Z,8.10
2023-01-02T10:43:27.148Z,8.87
2023-01-02T10:47:39.130Z,8.27
2023-01-02T10:51:48.433Z,8.03
2023-01-02T10:55:50.614Z,7.57
2023-01-02T10:59:58.741Z,7.63
2023-01-02T11:04:09.968Z,7.17
2023-01-02T11:08:18.398Z,7.37
2023-01-02T11:12:27.219Z,7.53
2023-01-02T11:21:07.776Z,7.77
2023-01-02T11:26:02.472Z,6.93
2023-01-02T11:30:42.424Z,7.83
2023-01-02T11:34:48.906Z,7.37
2023-01-02T11:38:55.131Z,7.43
2023-01-02T11:43:18.546Z,7.80
2023-01-02T11:47:33.493Z,6.90
2023-01-02T11:51:44.568Z,7.20
2023-01-02T11:56:16.212Z,7.37
2023-01-02T12:00:40.599Z,6.93
2023-01-02T12:04:48.932Z,7.20
2023-01-02T12:09:28.901Z,7.20
2023-01-02T12:14:07.841Z,7.17
2023-01-02T12:18:52.423Z,6.97
2023-01-02T12:23:33.161Z,7.27
2023-01-02T12:28:01.959Z,6.80
2023-01-02T12:33:05.159Z,7.20
2023-01-02T12:37:47.931Z,6.90
2023-01-02T12:42:32.285Z,7.07
2023-01-02T12:47:17.305Z,6.97
2023-01-02T12:51:41.111Z,7.17
2023-01-02T12:55:54.643Z,6.63
2023-01-02T13:00:37.276Z,6.73
2023-01-02T13:04:44.643Z,7.07
2023-01-02T13:09:21.767Z,6.57
2023-01-02T13:13:31.252Z,6.43
2023-01-02T13:17:51.484Z,6.50
2023-01-02T13:22:21.593Z,7.13
2023-01-02T13:26:26.210Z,7.13
2023-01-02T13:30:34.146Z,6.77
2023-01-02T13:34:37.547Z,6.87
2023-01-02T13:38:39.342Z,6.60
2023-01-02T13:42:58.993Z,6.70
2023-01-02T13:47:25.840Z,6.80
2023-01-02T13:51:33.988Z,6.17
2023-01-02T13:56:01.110Z,6.33
2023-01-02T14:00:35.422Z,6.10
2023-01-02T14:04:37.837Z,6.17
2023-01-02T14:08:42.318Z,7.50
2023-01-02T14:12:54.621Z,7.43
2023-01-02T14:17:41.346Z,7.13
2023-01-02T14:21:48.659Z,6.67
2023-01-02T14:25:50.493Z,7.10
2023-01-02T14:29:57.326Z,6.47
2023-01-02T14:33:59.080Z,6.67
2023-01-02T14:38:31.470Z,6.67
2023-01-02T14:42:51.607Z,7.30
2023-01-02T14:46:53.571Z,6.83
2023-01-02T14:50:55.450Z,6.50
2023-01-02T14:55:21.648Z,6.33
2023-01-02T14:59:42.733Z,6.20
2023-01-02T15:03:57.217Z,5.33
2023-01-02T15:07:59.091Z,3.87
2023-01-02T15:12:21.432Z,2.73
2023-01-02T15:16:23.841Z,3.27
2023-01-02T15:20:30.105Z,2.50
2023-01-02T15:24:32.033Z,2.63
2023-01-02T15:28:34.231Z,2.90
2023-01-02T15:32:36.592Z,2.60
2023-01-02T15:36:40.524Z,3.00
2023-01-02T15:40:45.103Z,2.50
2023-01-02T15:45:05.736Z,2.60
2023-01-02T15:49:09.965Z,2.87
2023-01-02T15:53:34.707Z,2.57
2023-01-02T15:57:51.025Z,2.80
2023-01-02T16:01:52.960Z,2.47
2023-01-02T16:05:56.204Z,2.80
2023-01-02T16:09:58.037Z,2.20
2023-01-02T16:14:20.249Z,2.83
2023-01-02T16:18:22.506Z,2.70
2023-01-02T16:22:44.508Z,2.43
2023-01-02T16:26:49.477Z,3.30
2023-01-02T16:31:07.894Z,2.63
2023-01-02T16:35:32.391Z,2.93
2023-01-02T16:39:48.165Z,2.70
2023-01-02T16:43:52.269Z,2.83
2023-01-02T16:47:54.169Z,2.90
2023-01-02T16:51:55.995Z,3.53
2023-01-02T16:56:00.890Z,3.27
2023-01-02T17:00:03.214Z,2.90
2023-01-02T17:04:05.346Z,2.60
2023-01-02T17:08:07.406Z,2.80
2023-01-02T17:12:13.347Z,2.60
2023-01-02T17:16:15.855Z,2.80
2023-01-02T17:20:17.978Z,2.53
2023-01-02T17:24:20.707Z,2.70
2023-01-02T17:28:22.607Z,2.63
2023-01-02T17:32:24.449Z,2.53
2023-01-02T17:36:26.347Z,2.60
2023-01-02T17:40:28.173Z,2.90
2023-01-02T17:44:35.491Z,3.07
2023-01-02T17:48:37.467Z,4.10
2023-01-02T17:52:39.417Z,3.43
2023-01-02T17:56:43.473Z,2.97
2023-01-02T18:00:48.583Z,2.83
2023-01-02T18:04:55.450Z,2.73
2023-01-02T18:08:57.581Z,2.80
2023-01-02T18:12:59.729Z,2.97
2023-01-02T18:17:26.872Z,3.00
2023-01-02T18:21:34.374Z,3.10
2023-01-02T18:25:36.185Z,2.93
2023-01-02T18:29:40.719Z,3.93
2023-01-02T18:33:43.507Z,3.47
2023-01-02T18:37:45.473Z,4.90
2023-01-02T18:41:49.944Z,3.30
2023-01-02T18:45:54.751Z,2.73
2023-01-02T18:50:01.416Z,6.10
2023-01-02T18:54:06.324Z,3.07
2023-01-02T18:58:46.409Z,2.43
2023-01-02T19:02:54.471Z,3.03
2023-01-02T19:07:31.047Z,2.83
2023-01-02T19:11:52.302Z,2.60
2023-01-02T19:16:13.183Z,2.87
2023-01-02T19:20:18.332Z,2.90
2023-01-02T19:24:30.121Z,2.70
2023-01-02T19:28:49.122Z,2.63
2023-01-02T19:32:51.084Z,2.67
2023-01-02T19:37:13.239Z,2.50
2023-01-02T19:41:15.925Z,2.80
2023-01-02T19:45:26.025Z,2.63
2023-01-02T19:49:27.967Z,2.90
2023-01-02T19:53:29.871Z,2.87
2023-01-02T19:57:39.648Z,2.40
2023-01-02T20:01:41.586Z,2.40
2023-01-02T20:05:46.184Z,2.37
2023-01-02T20:10:03.165Z,2.33
2023-01-02T20:14:05.106Z,2.77
2023-01-02T20:18:08.844Z,2.87
2023-01-02T20:22:11.278Z,2.70
2023-01-02T20:26:13.157Z,3.03
2023-01-02T20:30:20.311Z,2.60
2023-01-02T20:34:25.789Z,2.80
2023-01-02T20:38:28.066Z,3.20
2023-01-02T20:42:30.323Z,2.07
2023-01-02T20:46:32.155Z,0.77
2023-01-02T20:50:33.976Z,0.70
2023-01-02T20:54:35.869Z,0.70
2023-01-02T20:58:37.724Z,0.70
2023-01-02T21:02:39.669Z,0.80
2023-01-02T21:06:42.050Z,0.90
2023-01-02T21:10:44.012Z,0.90
2023-01-02T21:14:46.640Z,0.60
2023-01-02T21:18:48.617Z,0.80
2023-01-02T21:22:50.369Z,0.70
2023-01-02T21:26:52.262Z,1.10
2023-01-02T21:30:54.446Z,0.90
2023-01-02T21:34:56.208Z,1.00
2023-01-02T21:38:57.942Z,1.00
2023-01-02T21:42:59.821Z,1.00
2023-01-02T21:47:03.354Z,1.00
2023-01-02T21:51:06.539Z,0.93
2023-01-02T21:55:08.903Z,1.10
2023-01-02T21:59:10.710Z,0.90
2023-01-02T22:03:12.823Z,1.30
2023-01-02T22:07:31.664Z,0.80
2023-01-02T22:11:52.605Z,1.00
2023-01-02T22:15:54.819Z,0.90
2023-01-02T22:19:56.910Z,1.03
2023-01-02T22:23:58.918Z,1.00
2023-01-02T22:28:01.003Z,0.80
2023-01-02T22:32:04.071Z,1.00
2023-01-02T22:36:06.990Z,0.80
2023-01-02T22:40:09.703Z,1.00
2023-01-02T22:44:19.084Z,0.80
2023-01-02T22:48:26.930Z,1.00
2023-01-02T22:52:29.010Z,1.30
2023-01-02T22:56:30.753Z,1.20
2023-01-02T23:00:32.542Z,1.00
2023-01-02T23:04:34.473Z,1.20
2023-01-02T23:08:36.360Z,0.97
2023-01-02T23:12:38.144Z,0.80
2023-01-02T23:16:58.631Z,0.90
2023-01-02T23:21:08.396Z,0.83
2023-01-02T23:25:10.220Z,1.10
2023-01-02T23:29:12.320Z,1.03
2023-01-02T23:33:14.111Z,1.03
2023-01-02T23:37:15.858Z,1.10
2023-01-02T23:41:17.800Z,1.13
2023-01-02T23:45:19.791Z,1.10
2023-01-02T23:49:23.728Z,1.07
2023-01-02T23:53:26.149Z,1.00
2023-01-02T23:57:27.907Z,1.10
